X  Zamknij Lotniskowe dane METAR     LBPD Plovdiv International Airport
Temperatura
36°C Temperatura
13°C Punkt rosy
25% Wilgotność



Wiatr
23 KM/H
14 MPH
6 M/S
12 KTS



90°
E
Warunki bieżące

Częściowe zachmurzenie Częściowe zachmurzenie
Ciśnienie 1006.77 (hPa) - 29.73 (inHg)
Widoczność 6 (mil) - 9.7 (km)
Lotnisko
Kod lotniska LBPD

Położenie: Plovdiv International Airport
Odległość: 14 (km)

Metar:
LBPD 201500Z AUTO 09012KT 9999 FEW110/// 36/13 Q1007 NOSIG

Czas: 20-07-2024 18:00 EEST